Terminal Aerodrome Forecast
Issued by NWS Omaha/Valley, NE

Home | Current Version | Previous Version | Text Only | Print | Product List | Glossary Off
Versions: 1 2 3 4 5 6 7 8 9 10 11 12 13 14 15 16

000
FTUS43 KOAX 191720
TAFOFK
TAF
KOFK 191720Z 1918/2018 13007KT 1SM BR OVC003
     FM200600 17005KT 1/2SM FG OVC003
     FM201600 16006KT 1 1/2SM BR OVC003=

USA.gov is the U.S. government's official web portal to all federal, state and local government web resources and services.